createdAt,value
2023-01-27T00:02:16.167Z,-0.01
2023-01-27T00:05:20.579Z,0.03
2023-01-27T00:08:23.585Z,0.09
2023-01-27T00:11:44.007Z,0.07
2023-01-27T00:14:46.960Z,0.08
2023-01-27T00:17:49.960Z,0.10
2023-01-27T00:21:12.594Z,0.06
2023-01-27T00:24:33.807Z,0.04
2023-01-27T00:27:37.717Z,-0.01
2023-01-27T00:30:40.687Z,0.02
2023-01-27T00:33:45.867Z,0.03
2023-01-27T00:36:52.879Z,0.03
2023-01-27T00:39:55.958Z,0.10
2023-01-27T00:42:59.028Z,0.13
2023-01-27T00:46:02.134Z,0.10
2023-01-27T00:49:05.293Z,0.10
2023-01-27T00:52:09.595Z,0.09
2023-01-27T00:55:15.346Z,0.11
2023-01-27T00:58:18.384Z,0.13
2023-01-27T01:01:22.411Z,0.14
2023-01-27T01:04:26.798Z,0.20
2023-01-27T01:07:31.456Z,0.18
2023-01-27T01:10:37.116Z,0.13
2023-01-27T01:13:40.568Z,0.15
2023-01-27T01:16:43.538Z,0.17
2023-01-27T01:19:52.656Z,0.14
2023-01-27T01:23:00.447Z,0.12
2023-01-27T01:26:03.948Z,0.11
2023-01-27T01:29:07.227Z,0.12
2023-01-27T01:32:10.901Z,0.11
2023-01-27T01:35:14.294Z,0.11
2023-01-27T01:38:18.636Z,0.12
2023-01-27T01:41:22.180Z,0.08
2023-01-27T01:44:28.015Z,0.10
2023-01-27T01:47:31.292Z,0.09
2023-01-27T01:50:36.321Z,0.13
2023-01-27T01:53:48.333Z,0.16
2023-01-27T01:56:57.537Z,0.16
2023-01-27T02:00:07.951Z,0.11
2023-01-27T02:03:17.320Z,0.18
2023-01-27T02:06:21.109Z,0.18
2023-01-27T02:09:25.939Z,0.16
2023-01-27T02:12:29.379Z,0.17
2023-01-27T02:15:33.442Z,0.19
2023-01-27T02:18:36.720Z,0.18
2023-01-27T02:21:39.836Z,0.22
2023-01-27T02:24:53.811Z,0.27
2023-01-27T02:27:58.146Z,0.24
2023-01-27T02:31:03.226Z,0.21
2023-01-27T02:34:12.100Z,0.23
2023-01-27T02:37:16.430Z,0.25
2023-01-27T02:40:20.931Z,0.20
2023-01-27T02:43:25.294Z,0.22
2023-01-27T02:46:28.856Z,0.23
2023-01-27T02:49:41.434Z,0.21
2023-01-27T02:52:45.240Z,0.23
2023-01-27T02:55:48.624Z,0.29
2023-01-27T02:58:55.528Z,0.36
2023-01-27T03:02:04.905Z,0.35
2023-01-27T03:05:08.753Z,0.33
2023-01-27T03:08:12.087Z,0.31
2023-01-27T03:11:35.580Z,0.34
2023-01-27T03:14:58.645Z,0.35
2023-01-27T03:18:13.914Z,0.36
2023-01-27T03:21:18.985Z,0.36
2023-01-27T03:24:23.219Z,0.32
2023-01-27T03:27:29.151Z,0.36
2023-01-27T03:30:52.311Z,0.38
2023-01-27T03:34:00.963Z,0.42
2023-01-27T03:37:33.017Z,0.44
2023-01-27T03:40:53.732Z,0.49
2023-01-27T03:44:14.435Z,0.51
2023-01-27T03:47:18.943Z,0.57
2023-01-27T03:50:31.201Z,0.50
2023-01-27T03:53:34.644Z,0.50
2023-01-27T03:56:37.594Z,0.52
2023-01-27T03:59:40.558Z,0.48
2023-01-27T04:03:02.411Z,0.50
2023-01-27T04:06:24.255Z,0.55
2023-01-27T04:09:30.458Z,0.59
2023-01-27T04:12:32.524Z,0.59
2023-01-27T04:15:35.644Z,0.58
2023-01-27T04:18:39.958Z,0.57
2023-01-27T04:21:43.511Z,0.55
2023-01-27T04:24:50.150Z,0.57
2023-01-27T04:27:53.212Z,0.56
2023-01-27T04:30:56.842Z,0.62
2023-01-27T04:34:01.185Z,0.63
2023-01-27T04:37:04.931Z,0.60
2023-01-27T04:40:10.248Z,0.66
2023-01-27T04:43:13.587Z,0.59
2023-01-27T04:46:16.680Z,0.62
2023-01-27T04:49:21.031Z,0.65
2023-01-27T04:52:24.039Z,0.71
2023-01-27T04:55:27.460Z,0.68
2023-01-27T04:58:30.678Z,0.72
2023-01-27T05:01:36.032Z,0.67
2023-01-27T05:04:40.363Z,0.64
2023-01-27T05:07:43.427Z,0.68
2023-01-27T05:10:46.461Z,0.70
2023-01-27T05:13:49.805Z,0.77
2023-01-27T05:16:55.222Z,0.79
2023-01-27T05:20:00.342Z,0.82
2023-01-27T05:23:21.052Z,0.85
2023-01-27T05:26:26.581Z,0.86
2023-01-27T05:29:29.552Z,0.78
2023-01-27T05:32:32.504Z,0.71
2023-01-27T05:35:36.887Z,0.79
2023-01-27T05:38:40.153Z,0.81
2023-01-27T05:41:43.146Z,0.79
2023-01-27T05:44:46.168Z,0.76
2023-01-27T05:47:54.394Z,0.79
2023-01-27T05:51:00.143Z,0.80
2023-01-27T05:54:03.660Z,0.82
2023-01-27T05:57:06.723Z,0.82
2023-01-27T06:00:11.895Z,0.84
2023-01-27T06:03:18.342Z,0.75
2023-01-27T06:06:24.706Z,0.73
2023-01-27T06:09:27.957Z,0.74
2023-01-27T06:12:30.892Z,0.78
2023-01-27T06:15:35.923Z,0.79
2023-01-27T06:18:39.792Z,0.86
2023-01-27T06:21:44.196Z,0.87
2023-01-27T06:24:47.375Z,0.88
2023-01-27T06:27:50.340Z,0.83
2023-01-27T06:30:53.558Z,0.87
2023-01-27T06:33:57.080Z,0.90
2023-01-27T06:37:01.666Z,0.86
2023-01-27T06:40:05.517Z,0.88
2023-01-27T06:43:14.065Z,0.92
2023-01-27T06:46:17.225Z,0.96
2023-01-27T06:49:27.551Z,0.98
2023-01-27T06:52:35.252Z,0.98
2023-01-27T06:55:41.747Z,0.96
2023-01-27T06:58:45.131Z,0.97
2023-01-27T07:01:57.332Z,0.99
2023-01-27T07:05:00.576Z,0.99
2023-01-27T07:08:04.917Z,1.03
2023-01-27T07:11:08.320Z,1.11
2023-01-27T07:14:11.333Z,1.16
2023-01-27T07:17:15.078Z,1.20
2023-01-27T07:20:19.849Z,1.19
2023-01-27T07:23:24.379Z,1.19
2023-01-27T07:26:27.676Z,1.23
2023-01-27T07:29:31.399Z,1.22
2023-01-27T07:32:34.590Z,1.25
2023-01-27T07:35:39.159Z,1.31
2023-01-27T07:38:43.724Z,1.31
2023-01-27T07:41:50.187Z,1.36
2023-01-27T07:44:53.657Z,1.38
2023-01-27T07:48:02.248Z,1.44
2023-01-27T07:51:05.839Z,1.48
2023-01-27T07:54:10.449Z,1.52
2023-01-27T07:57:13.719Z,1.59
2023-01-27T08:00:18.689Z,1.61
2023-01-27T08:03:24.868Z,1.66
2023-01-27T08:06:28.050Z,1.74
2023-01-27T08:09:35.267Z,1.82
2023-01-27T08:12:38.430Z,1.90
2023-01-27T08:15:41.534Z,1.95
2023-01-27T08:18:44.919Z,2.03
2023-01-27T08:21:48.182Z,2.08
2023-01-27T08:24:55.577Z,2.09
2023-01-27T08:27:59.759Z,2.13
2023-01-27T08:31:08.119Z,2.19
2023-01-27T08:34:12.008Z,2.21
2023-01-27T08:37:15.525Z,2.23
2023-01-27T08:40:20.384Z,2.27
2023-01-27T08:43:23.484Z,2.29
2023-01-27T08:46:27.067Z,2.35
2023-01-27T08:49:30.448Z,2.33
2023-01-27T08:52:33.691Z,2.36
2023-01-27T08:55:38.071Z,2.40
2023-01-27T08:58:52.292Z,2.42
2023-01-27T09:01:55.600Z,2.43
2023-01-27T09:04:59.035Z,2.50
2023-01-27T09:08:02.391Z,2.57
2023-01-27T09:11:16.179Z,2.57
2023-01-27T09:14:22.327Z,2.63
2023-01-27T09:17:26.004Z,2.68
2023-01-27T09:20:29.403Z,2.69
2023-01-27T09:23:34.083Z,2.70
2023-01-27T09:26:38.686Z,2.71
2023-01-27T09:29:43.906Z,2.76
2023-01-27T09:32:47.613Z,2.77
2023-01-27T09:36:00.772Z,2.80
2023-01-27T09:39:08.447Z,2.82
2023-01-27T09:42:42.490Z,2.85
2023-01-27T09:46:12.880Z,2.87
2023-01-27T09:49:40.269Z,2.90
2023-01-27T09:53:12.311Z,2.88
2023-01-27T09:56:23.377Z,2.90
2023-01-27T09:59:55.900Z,2.93
2023-01-27T10:03:26.938Z,2.94
2023-01-27T10:06:50.644Z,2.94
2023-01-27T10:10:09.535Z,2.98
2023-01-27T10:13:25.748Z,2.98
2023-01-27T10:16:52.086Z,3.04
2023-01-27T10:20:16.003Z,2.99
2023-01-27T10:23:38.221Z,2.97
2023-01-27T10:26:44.015Z,3.02
2023-01-27T10:29:52.287Z,3.08
2023-01-27T10:33:08.672Z,3.07
2023-01-27T10:36:27.014Z,3.12
2023-01-27T10:39:44.111Z,3.12
2023-01-27T10:42:56.234Z,3.11
2023-01-27T10:46:10.050Z,3.13
2023-01-27T10:49:24.085Z,3.15
2023-01-27T10:52:34.509Z,3.22
2023-01-27T10:55:54.093Z,3.20
2023-01-27T10:59:05.649Z,3.18
2023-01-27T11:02:20.323Z,3.20
2023-01-27T11:05:34.724Z,3.20
2023-01-27T11:08:42.040Z,3.26
2023-01-27T11:11:47.254Z,3.28
2023-01-27T11:14:56.561Z,3.38
2023-01-27T11:18:28.852Z,3.33
2023-01-27T11:21:37.189Z,3.36
2023-01-27T11:24:49.203Z,3.34
2023-01-27T11:28:06.508Z,3.33
2023-01-27T11:31:23.489Z,3.40
2023-01-27T11:34:34.092Z,3.40
2023-01-27T11:37:41.806Z,3.41
2023-01-27T11:40:46.877Z,3.39
2023-01-27T11:43:50.576Z,3.49
2023-01-27T11:46:57.131Z,3.50
2023-01-27T11:50:04.461Z,3.43
2023-01-27T11:53:18.716Z,3.48
2023-01-27T11:56:25.303Z,3.49
2023-01-27T11:59:32.745Z,3.46
2023-01-27T12:02:44.793Z,3.46
2023-01-27T12:05:58.930Z,3.49
2023-01-27T12:09:31.003Z,3.57
2023-01-27T12:12:38.489Z,3.60
2023-01-27T12:15:49.511Z,3.64
2023-01-27T12:19:01.085Z,3.63
2023-01-27T12:22:12.274Z,3.54
2023-01-27T12:25:23.098Z,3.60
2023-01-27T12:28:31.160Z,3.61
2023-01-27T12:31:47.102Z,3.53
2023-01-27T12:34:56.441Z,3.56
2023-01-27T12:38:03.260Z,3.58
2023-01-27T12:41:10.908Z,3.52
2023-01-27T12:44:23.300Z,3.56
2023-01-27T12:47:35.493Z,3.52
2023-01-27T12:50:41.170Z,3.51
2023-01-27T12:53:44.742Z,3.52
2023-01-27T12:56:50.220Z,3.49
2023-01-27T12:59:57.595Z,3.45
2023-01-27T13:03:08.119Z,3.42
2023-01-27T13:06:16.746Z,3.39
2023-01-27T13:09:28.384Z,3.44
2023-01-27T13:12:52.522Z,3.37
2023-01-27T13:15:59.186Z,3.34
2023-01-27T13:19:02.743Z,3.33
2023-01-27T13:22:17.694Z,3.26
2023-01-27T13:25:27.421Z,3.28
2023-01-27T13:28:52.173Z,3.24
2023-01-27T13:32:07.142Z,3.24
2023-01-27T13:35:23.433Z,3.22
2023-01-27T13:38:35.862Z,3.19
2023-01-27T13:41:45.876Z,3.16
2023-01-27T13:44:58.006Z,3.18
2023-01-27T13:48:06.069Z,3.16
2023-01-27T13:51:12.676Z,3.21
2023-01-27T13:54:16.585Z,3.23
2023-01-27T13:57:39.999Z,3.23
2023-01-27T14:00:54.441Z,3.25
2023-01-27T14:04:28.749Z,3.32
2023-01-27T14:07:43.815Z,3.27
2023-01-27T14:11:02.461Z,3.30
2023-01-27T14:14:24.510Z,3.28
2023-01-27T14:17:40.834Z,3.33
2023-01-27T14:20:59.960Z,3.36
2023-01-27T14:24:13.568Z,3.37
2023-01-27T14:27:26.697Z,3.43
2023-01-27T14:30:37.750Z,3.44
2023-01-27T14:34:01.721Z,3.43
2023-01-27T14:37:16.443Z,3.41
2023-01-27T14:40:24.660Z,3.43
2023-01-27T14:43:38.445Z,3.41
2023-01-27T14:46:57.408Z,3.41
2023-01-27T14:50:15.886Z,3.36
2023-01-27T14:53:42.460Z,3.34
2023-01-27T14:57:05.963Z,3.33
2023-01-27T15:00:28.777Z,3.32
2023-01-27T15:03:52.196Z,3.31
2023-01-27T15:07:03.942Z,3.33
2023-01-27T15:10:22.906Z,3.36
2023-01-27T15:13:56.420Z,3.32
2023-01-27T15:17:22.094Z,3.32
2023-01-27T15:20:54.526Z,3.32
2023-01-27T15:24:18.062Z,3.29
2023-01-27T15:27:23.397Z,3.31
2023-01-27T15:30:29.429Z,3.29
2023-01-27T15:33:54.039Z,3.29
2023-01-27T15:37:03.128Z,3.30
2023-01-27T15:40:17.650Z,3.29
2023-01-27T15:43:22.877Z,3.29
2023-01-27T15:46:34.933Z,3.29
2023-01-27T15:49:42.994Z,3.28
2023-01-27T15:52:47.992Z,3.28
2023-01-27T15:55:55.731Z,3.30
2023-01-27T15:59:04.944Z,3.28
2023-01-27T16:02:17.858Z,3.25
2023-01-27T16:05:27.171Z,3.25
2023-01-27T16:08:33.199Z,3.28
2023-01-27T16:11:44.020Z,3.22
2023-01-27T16:14:47.535Z,3.24
2023-01-27T16:18:26.247Z,3.21
2023-01-27T16:21:49.466Z,3.21
2023-01-27T16:24:56.758Z,3.18
2023-01-27T16:28:09.837Z,3.21
2023-01-27T16:31:22.802Z,3.18
2023-01-27T16:34:33.394Z,3.24
2023-01-27T16:37:39.442Z,3.28
2023-01-27T16:40:50.545Z,3.27
2023-01-27T16:43:58.955Z,3.23
2023-01-27T16:47:16.563Z,3.21
2023-01-27T16:50:36.407Z,3.20
2023-01-27T16:53:44.036Z,3.16
2023-01-27T16:56:51.866Z,3.20
2023-01-27T16:59:59.641Z,3.17
2023-01-27T17:03:09.532Z,3.21
2023-01-27T17:06:17.007Z,3.18
2023-01-27T17:09:26.027Z,3.16
2023-01-27T17:12:35.353Z,3.15
2023-01-27T17:15:41.589Z,3.12
2023-01-27T17:18:52.627Z,3.11
2023-01-27T17:21:59.187Z,3.13
2023-01-27T17:25:10.842Z,3.12
2023-01-27T17:28:21.277Z,3.06
2023-01-27T17:31:26.261Z,3.05
2023-01-27T17:34:29.562Z,3.02
2023-01-27T17:37:33.405Z,2.99
2023-01-27T17:40:41.155Z,2.90
2023-01-27T17:43:45.843Z,2.87
2023-01-27T17:46:50.379Z,2.76
2023-01-27T17:49:53.400Z,2.72
2023-01-27T17:52:57.531Z,2.66
2023-01-27T17:56:01.702Z,2.63
2023-01-27T17:59:10.340Z,2.55
2023-01-27T18:02:23.444Z,2.50
2023-01-27T18:05:31.774Z,2.50
2023-01-27T18:08:36.031Z,2.46
2023-01-27T18:11:39.121Z,2.44
2023-01-27T18:14:42.302Z,2.47
2023-01-27T18:17:59.278Z,2.46
2023-01-27T18:21:07.659Z,2.46
2023-01-27T18:24:20.980Z,2.47
2023-01-27T18:27:31.353Z,2.49
2023-01-27T18:30:34.731Z,2.50
2023-01-27T18:33:41.662Z,2.56
2023-01-27T18:36:54.559Z,2.55
2023-01-27T18:40:00.097Z,2.55
2023-01-27T18:43:05.593Z,2.52
2023-01-27T18:46:11.712Z,2.47
2023-01-27T18:49:16.101Z,2.47
2023-01-27T18:52:19.198Z,2.41
2023-01-27T18:55:24.562Z,2.41
2023-01-27T18:58:27.546Z,2.36
2023-01-27T19:01:30.813Z,2.33
2023-01-27T19:04:35.274Z,2.35
2023-01-27T19:07:38.380Z,2.41
2023-01-27T19:10:41.624Z,2.41
2023-01-27T19:13:45.718Z,2.30
2023-01-27T19:16:48.663Z,2.33
2023-01-27T19:19:52.981Z,2.23
2023-01-27T19:22:57.828Z,2.21
2023-01-27T19:26:06.546Z,2.19
2023-01-27T19:29:13.736Z,2.13
2023-01-27T19:32:17.357Z,2.11
2023-01-27T19:35:22.647Z,2.07
2023-01-27T19:38:28.756Z,2.07
2023-01-27T19:41:31.899Z,2.00
2023-01-27T19:44:35.135Z,1.98
2023-01-27T19:47:38.122Z,1.98
2023-01-27T19:50:42.658Z,1.92
2023-01-27T19:53:46.188Z,1.94
2023-01-27T19:56:49.404Z,1.92
2023-01-27T19:59:55.216Z,1.85
2023-01-27T20:02:58.743Z,1.80
2023-01-27T20:06:03.818Z,1.78
2023-01-27T20:09:06.816Z,1.81
2023-01-27T20:12:14.388Z,1.82
2023-01-27T20:15:19.136Z,1.77
2023-01-27T20:18:24.003Z,1.73
2023-01-27T20:21:31.345Z,1.68
2023-01-27T20:24:36.434Z,1.64
2023-01-27T20:27:39.523Z,1.63
2023-01-27T20:30:42.973Z,1.63
2023-01-27T20:33:49.863Z,1.60
2023-01-27T20:36:54.160Z,1.60
2023-01-27T20:39:57.241Z,1.50
2023-01-27T20:43:02.274Z,1.50
2023-01-27T20:46:06.224Z,1.50
2023-01-27T20:49:09.216Z,1.47
2023-01-27T20:52:13.493Z,1.44
2023-01-27T20:55:19.278Z,1.41
2023-01-27T20:58:22.348Z,1.41
2023-01-27T21:01:25.466Z,1.41
2023-01-27T21:04:28.840Z,1.38
2023-01-27T21:07:33.164Z,1.39
2023-01-27T21:10:36.343Z,1.37
2023-01-27T21:13:39.636Z,1.41
2023-01-27T21:16:42.722Z,1.31
2023-01-27T21:19:45.746Z,1.29
2023-01-27T21:22:51.406Z,1.20
2023-01-27T21:25:55.407Z,1.16
2023-01-27T21:28:58.366Z,1.12
2023-01-27T21:32:01.565Z,1.10
2023-01-27T21:35:05.251Z,1.07
2023-01-27T21:38:09.748Z,1.09
2023-01-27T21:41:36.580Z,1.11
2023-01-27T21:44:59.164Z,0.98
2023-01-27T21:48:02.347Z,0.94
2023-01-27T21:51:05.522Z,0.94
2023-01-27T21:54:10.242Z,0.88
2023-01-27T21:57:13.215Z,0.84
2023-01-27T22:00:19.955Z,0.82
2023-01-27T22:03:23.933Z,0.80
2023-01-27T22:06:27.417Z,0.77
2023-01-27T22:09:31.783Z,0.71
2023-01-27T22:12:35.873Z,0.55
2023-01-27T22:15:38.878Z,0.49
2023-01-27T22:18:42.185Z,0.49
2023-01-27T22:21:45.806Z,0.46
2023-01-27T22:24:50.109Z,0.39
2023-01-27T22:27:55.331Z,0.31
2023-01-27T22:31:02.382Z,0.26
2023-01-27T22:34:05.666Z,0.25
2023-01-27T22:37:08.654Z,0.21
2023-01-27T22:40:14.291Z,0.15
2023-01-27T22:43:17.240Z,0.12
2023-01-27T22:46:20.240Z,0.12
2023-01-27T22:49:23.673Z,0.06
2023-01-27T22:52:27.108Z,0.03
2023-01-27T22:55:31.452Z,0.04
2023-01-27T22:58:37.855Z,-0.04
2023-01-27T23:01:41.141Z,-0.12
2023-01-27T23:04:48.564Z,-0.14
2023-01-27T23:07:51.818Z,-0.10
2023-01-27T23:11:01.314Z,-0.14
2023-01-27T23:14:04.628Z,-0.16
2023-01-27T23:17:07.877Z,-0.18
2023-01-27T23:20:12.875Z,-0.14
2023-01-27T23:23:17.068Z,-0.23
2023-01-27T23:26:21.508Z,-0.28
2023-01-27T23:29:26.431Z,-0.30
2023-01-27T23:32:30.220Z,-0.37
2023-01-27T23:35:33.333Z,-0.44
2023-01-27T23:38:37.052Z,-0.41
2023-01-27T23:41:41.343Z,-0.46
2023-01-27T23:44:44.401Z,-0.49
2023-01-27T23:47:47.382Z,-0.52
2023-01-27T23:50:51.811Z,-0.48
2023-01-27T23:53:55.415Z,-0.43
2023-01-27T23:56:59.964Z,-0.51
